Time;durP1;ratioP1;P1;durP2;ratioP2;P2;SDS_P1;SDS_P2;PMS_P1;PMS_P2;Temp;Humidity;BMP_temperature;BMP_pressure;BME280_temperature;BME280_humidity;BME280_pressure;Samples;Min_cycle;Max_cycle;Signal;HPM_P1;HPM_P2
2023/02/15 00:02:49;;;;;;;88.13;51.53;;;8.20;91.80;;;;;;5031455;28;20044;-76
2023/02/15 00:05:57;;;;;;;83.22;50.17;;;8.60;91.70;;;;;;5031567;28;20416;-74
2023/02/15 00:09:02;;;;;;;87.05;51.08;;;9.20;92.00;;;;;;5031233;28;20040;-74
2023/02/15 00:12:07;;;;;;;75.25;47.38;;;;;;;;;;5031063;28;20053;-74
2023/02/15 00:15:12;;;;;;;84.63;47.15;;;8.40;91.50;;;;;;5030574;28;20041;-75
2023/02/15 00:18:16;;;;;;;81.90;50.30;;;10.30;92.00;;;;;;5030388;28;20040;-75
2023/02/15 00:21:20;;;;;;;82.47;54.10;;;;;;;;;;5030357;28;20408;-74
2023/02/15 00:24:25;;;;;;;89.18;54.50;;;9.10;92.10;;;;;;5030231;28;20037;-74
2023/02/15 00:27:29;;;;;;;91.68;54.17;;;;;;;;;;5033840;28;20114;-73
2023/02/15 00:30:33;;;;;;;82.90;54.58;;;7.10;92.10;;;;;;5033160;28;20040;-74
2023/02/15 00:33:40;;;;;;;96.63;54.53;;;;;;;;;;5033247;28;20052;-74
2023/02/15 00:36:44;;;;;;;87.10;53.05;;;8.40;93.10;;;;;;5034348;28;20053;-74
2023/02/15 00:39:49;;;;;;;86.43;54.75;;;;;;;;;;5033686;28;20045;-75
2023/02/15 00:42:58;;;;;;;102.10;61.08;;;;;;;;;;5031824;28;20072;-75
2023/02/15 00:46:05;;;;;;;97.47;57.30;;;9.60;93.40;;;;;;5032666;28;20048;-74
2023/02/15 00:49:10;;;;;;;92.88;58.25;;;5.10;91.70;;;;;;5020286;28;20520;-74
2023/02/15 00:52:15;;;;;;;97.75;57.55;;;;;;;;;;5031802;28;20040;-75
2023/02/15 00:55:20;;;;;;;91.63;57.33;;;;;;;;;;5034486;28;20049;-75
2023/02/15 00:58:25;;;;;;;93.00;57.47;;;7.40;91.90;;;;;;5033594;28;20056;-75
2023/02/15 01:01:29;;;;;;;95.00;58.45;;;8.50;92.60;;;;;;5033631;28;20076;-75
2023/02/15 01:04:33;;;;;;;92.45;57.30;;;;;;;;;;5031355;28;20048;-75
2023/02/15 01:07:37;;;;;;;91.70;57.75;;;5.40;91.80;;;;;;5032343;28;20480;-75
2023/02/15 01:10:43;;;;;;;87.28;56.17;;;7.30;92.30;;;;;;5030034;28;20049;-75
2023/02/15 01:13:53;;;;;;;93.47;58.50;;;;;;;;;;5030119;28;20527;-75
2023/02/15 01:16:57;;;;;;;90.25;56.92;;;6.70;92.20;;;;;;5030165;28;20508;-75
2023/02/15 01:20:01;;;;;;;96.00;59.38;;;7.60;92.50;;;;;;5032933;28;20523;-75
2023/02/15 01:23:06;;;;;;;91.78;57.30;;;;;;;;;;5032038;28;20052;-75
2023/02/15 01:26:11;;;;;;;92.95;56.97;;;;;;;;;;5031366;28;20040;-74
2023/02/15 01:29:15;;;;;;;90.93;56.35;;;;;;;;;;5031538;28;20048;-74
2023/02/15 01:32:19;;;;;;;94.88;56.10;;;;;;;;;;5032874;28;20052;-74
2023/02/15 01:35:25;;;;;;;90.30;55.92;;;7.00;92.10;;;;;;5019049;28;20040;-74
2023/02/15 01:38:29;;;;;;;91.00;56.13;;;;;;;;;;5020028;28;20048;-74
2023/02/15 01:41:33;;;;;;;87.00;54.13;;;;;;;;;;5031478;28;20040;-75
2023/02/15 01:44:57;;;;;;;88.43;56.92;;;7.10;91.90;;;;;;5031209;28;20056;-74
2023/02/15 01:48:04;;;;;;;89.65;55.72;;;6.80;91.90;;;;;;5031472;28;20048;-74
2023/02/15 01:51:09;;;;;;;88.65;56.67;;;;;;;;;;5031043;28;20040;-75
2023/02/15 01:54:24;;;;;;;90.15;58.30;;;6.70;92.20;;;;;;5009354;28;20044;-75
2023/02/15 01:57:28;;;;;;;86.88;57.50;;;;;;;;;;5029986;28;20052;-74
2023/02/15 02:00:36;;;;;;;89.47;56.70;;;;;;;;;;5029402;28;20040;-74
2023/02/15 02:04:01;;;;;;;91.55;56.03;;;7.10;92.40;;;;;;5029379;28;20400;-74
2023/02/15 02:07:09;;;;;;;88.45;55.28;;;;;;;;;;5031212;28;20041;-74
2023/02/15 02:10:15;;;;;;;89.07;55.15;;;;;;;;;;5031438;28;20041;-74
2023/02/15 02:13:19;;;;;;;88.38;54.95;;;;;;;;;;5032198;28;20064;-74
2023/02/15 02:16:28;;;;;;;85.55;54.20;;;;;;;;;;5031815;28;20409;-74
2023/02/15 02:20:07;;;;;;;87.68;54.30;;;5.20;91.30;;;;;;5033162;28;20045;-74
2023/02/15 02:23:36;;;;;;;92.38;55.75;;;6.90;92.20;;;;;;5031954;28;20045;-74
2023/02/15 02:27:18;;;;;;;87.57;54.88;;;7.00;92.80;;;;;;5032854;28;20045;-74
2023/02/15 02:30:23;;;;;;;85.10;54.63;;;;;;;;;;5030920;28;20041;-74
2023/02/15 02:33:43;;;;;;;89.40;54.95;;;;;;;;;;5031472;28;20044;-74
2023/02/15 02:36:47;;;;;;;85.47;55.60;;;;;;;;;;5030359;28;20052;-74
2023/02/15 02:39:51;;;;;;;87.65;56.08;;;;;;;;;;5029638;28;20048;-74
2023/02/15 02:42:59;;;;;;;91.07;55.15;;;;;;;;;;5029056;28;20044;-74
2023/02/15 02:46:07;;;;;;;91.07;54.38;;;;;;;;;;5028243;28;20048;-75
2023/02/15 02:49:12;;;;;;;90.90;54.75;;;;;;;;;;5028886;28;20052;-74
2023/02/15 02:52:35;;;;;;;88.30;52.80;;;;;;;;;;5028982;28;20049;-74
2023/02/15 02:55:43;;;;;;;78.30;50.63;;;;;;;;;;5029130;28;20049;-74
2023/02/15 02:58:50;;;;;;;87.47;51.58;;;;;;;;;;5028275;28;20060;-74
2023/02/15 03:01:58;;;;;;;80.78;48.58;;;;;;;;;;5028887;28;20044;-74
2023/02/15 03:05:06;;;;;;;77.95;47.10;;;;;;;;;;5028383;28;20064;-75
2023/02/15 03:08:12;;;;;;;78.07;44.97;;;;;;;;;;5028181;28;20045;-75
2023/02/15 03:11:16;;;;;;;77.88;43.55;;;;;;;;;;5016410;28;20053;-75
2023/02/15 03:14:20;;;;;;;70.45;41.03;;;;;;;;;;5028513;28;20049;-75
2023/02/15 03:17:26;;;;;;;68.47;40.33;;;;;;;;;;5016302;28;20052;-75
2023/02/15 03:20:32;;;;;;;64.07;40.30;;;;;;;;;;5027742;28;20519;-74
2023/02/15 03:23:39;;;;;;;67.70;39.00;;;;;;;;;;5027718;28;20044;-74
2023/02/15 03:26:46;;;;;;;61.47;37.13;;;;;;;;;;5027833;28;20519;-75
2023/02/15 03:29:52;;;;;;;60.13;36.28;;;;;;;;;;5027493;28;20403;-75
2023/02/15 03:32:57;;;;;;;59.40;37.33;;;;;;;;;;5028398;28;20040;-75
2023/02/15 03:36:09;;;;;;;53.60;34.30;;;5.60;93.00;;;;;;5031236;28;20056;-75
2023/02/15 03:39:16;;;;;;;61.97;34.40;;;;;;;;;;5030867;28;20045;-75
2023/02/15 03:42:32;;;;;;;61.30;34.78;;;5.00;93.20;;;;;;5029422;28;20064;-75
2023/02/15 03:45:38;;;;;;;62.58;36.20;;;;;;;;;;5030498;28;20115;-75
2023/02/15 03:48:47;;;;;;;53.95;34.03;;;;;;;;;;5030041;28;20056;-76
2023/02/15 03:51:53;;;;;;;56.83;32.92;;;;;;;;;;5028701;28;20049;-73
2023/02/15 03:54:58;;;;;;;59.53;33.97;;;;;;;;;;5028987;28;20048;-73
2023/02/15 04:04:57;;;;;;;51.03;31.60;;;;;;;;;;5031528;28;20044;-74
2023/02/15 04:08:01;;;;;;;51.58;31.65;;;;;;;;;;5031690;28;20404;-74
2023/02/15 04:11:06;;;;;;;59.50;30.67;;;;;;;;;;5031032;28;20401;-74
2023/02/15 04:17:33;;;;;;;54.60;31.50;;;;;;;;;;5031452;28;20060;-74
2023/02/15 04:27:23;;;;;;;48.47;30.23;;;;;;;;;;5030546;28;20048;-74
2023/02/15 04:30:27;;;;;;;52.00;31.75;;;;;;;;;;5031281;28;20056;-75
2023/02/15 04:33:31;;;;;;;57.72;31.17;;;;;;;;;;5030980;28;20500;-75
2023/02/15 04:36:36;;;;;;;54.13;32.45;;;;;;;;;;5030859;28;20053;-75
2023/02/15 04:39:40;;;;;;;59.97;33.58;;;;;;;;;;5031205;28;20048;-75
2023/02/15 04:42:44;;;;;;;55.55;32.05;;;;;;;;;;5031206;28;20052;-75
2023/02/15 04:45:52;;;;;;;64.80;36.30;;;;;;;;;;5030719;28;20500;-75
2023/02/15 04:48:56;;;;;;;60.53;36.08;;;;;;;;;;5018983;28;20048;-75
2023/02/15 04:52:00;;;;;;;61.42;35.80;;;;;;;;;;5030807;28;20040;-75
2023/02/15 04:55:05;;;;;;;56.40;34.13;;;;;;;;;;5030692;28;20058;-75
2023/02/15 04:58:09;;;;;;;60.25;36.45;;;;;;;;;;5030648;28;20052;-75
2023/02/15 05:01:14;;;;;;;65.20;34.38;;;;;;;;;;5030598;28;20052;-74
2023/02/15 05:04:18;;;;;;;60.58;34.60;;;;;;;;;;5031024;28;20052;-75
2023/02/15 05:07:22;;;;;;;58.92;32.95;;;;;;;;;;5030734;28;20044;-75
2023/02/15 05:10:27;;;;;;;67.03;33.40;;;;;;;;;;5030059;28;20045;-74
2023/02/15 05:13:34;;;;;;;54.50;33.65;;;;;;;;;;5030583;28;20053;-75
2023/02/15 05:16:39;;;;;;;59.88;34.22;;;;;;;;;;5030224;28;20048;-74
2023/02/15 05:19:46;;;;;;;60.53;33.03;;;;;;;;;;5029694;28;20040;-73
2023/02/15 05:22:54;;;;;;;52.70;30.50;;;;;;;;;;5029431;28;20061;-75
2023/02/15 05:29:21;;;;;;;54.60;32.15;;;;;;;;;;5029943;28;20064;-75
2023/02/15 05:32:25;;;;;;;63.55;33.50;;;;;;;;;;5030198;28;20052;-75
2023/02/15 05:35:29;;;;;;;47.63;30.15;;;;;;;;;;5030191;28;20048;-75
2023/02/15 05:38:34;;;;;;;63.10;33.70;;;;;;;;;;5017939;28;20048;-76
2023/02/15 05:41:38;;;;;;;51.03;32.10;;;;;;;;;;5030153;28;20052;-74
2023/02/15 05:44:42;;;;;;;66.05;32.10;;;;;;;;;;5030056;28;20504;-74
2023/02/15 05:47:47;;;;;;;72.65;32.38;;;;;;;;;;5030334;28;20516;-74
2023/02/15 05:51:17;;;;;;;70.82;34.65;;;;;;;;;;5032586;28;20037;-74
2023/02/15 05:54:21;;;;;;;68.68;33.72;;;;;;;;;;5031698;28;20045;-74
2023/02/15 05:57:26;;;;;;;71.07;35.92;;;;;;;;;;5033108;28;20056;-74
2023/02/15 06:00:31;;;;;;;63.28;33.67;;;;;;;;;;5032318;28;20044;-76
2023/02/15 06:03:35;;;;;;;61.80;33.00;;;;;;;;;;5031588;28;20396;-75
2023/02/15 06:06:40;;;;;;;62.42;30.50;;;;;;;;;;5031662;28;20496;-73
2023/02/15 06:09:44;;;;;;;58.03;28.95;;;;;;;;;;5032072;28;20057;-76
2023/02/15 06:12:49;;;;;;;52.00;27.92;;;;;;;;;;5030756;28;20060;-74
2023/02/15 06:15:54;;;;;;;51.97;25.02;;;;;;;;;;5031538;28;20048;-75
2023/02/15 06:18:59;;;;;;;49.22;25.67;;;;;;;;;;5031463;28;20068;-75
2023/02/15 06:22:03;;;;;;;57.30;27.80;;;;;;;;;;5029383;28;20052;-75
2023/02/15 06:25:09;;;;;;;90.28;33.55;;;;;;;;;;5030834;28;20044;-76
2023/02/15 06:28:14;;;;;;;63.55;30.05;;;;;;;;;;5030212;28;20398;-77
2023/02/15 06:31:18;;;;;;;77.32;33.63;;;;;;;;;;5029580;28;20064;-70
2023/02/15 06:34:22;;;;;;;78.38;32.40;;;;;;;;;;5030145;28;20044;-71
2023/02/15 06:37:27;;;;;;;62.80;29.95;;;;;;;;;;5030118;28;20060;-71
2023/02/15 06:40:31;;;;;;;59.30;30.58;;;;;;;;;;5029874;28;20052;-69
2023/02/15 06:43:36;;;;;;;64.15;29.33;;;;;;;;;;5029469;28;20615;-69
2023/02/15 06:46:40;;;;;;;71.20;28.58;;;;;;;;;;5029591;28;20045;-69
2023/02/15 06:49:46;;;;;;;63.38;29.52;;;;;;;;;;5029359;28;20044;-70
2023/02/15 06:52:55;;;;;;;62.60;32.08;;;;;;;;;;5028336;28;20045;-70
2023/02/15 06:56:08;;;;;;;66.68;32.22;;;;;;;;;;5029377;28;20072;-69
2023/02/15 06:59:13;;;;;;;81.00;31.90;;;;;;;;;;5028139;28;20226;-70
2023/02/15 07:02:17;;;;;;;54.78;29.95;;;;;;;;;;5028943;28;20508;-70
2023/02/15 07:05:22;;;;;;;58.00;30.00;;;;;;;;;;5028767;28;20048;-69
2023/02/15 07:08:27;;;;;;;64.32;32.83;;;;;;;;;;5029490;28;20060;-71
2023/02/15 07:14:55;;;;;;;71.90;32.58;;;;;;;;;;5029050;28;20161;-70
2023/02/15 07:17:59;;;;;;;69.20;36.10;;;;;;;;;;5029565;28;20512;-70
2023/02/15 07:21:04;;;;;;;74.15;37.15;;;;;;;;;;5028956;28;20389;-67
2023/02/15 07:24:11;;;;;;;62.35;35.53;;;7.90;88.10;;;;;;5027512;28;20036;-68
2023/02/15 07:27:15;;;;;;;64.00;37.28;;;8.00;87.70;;;;;;5028666;28;20072;-68
2023/02/15 07:30:20;;;;;;;71.53;36.55;;;8.80;87.80;;;;;;5028571;28;20048;-69
2023/02/15 07:33:26;;;;;;;67.30;37.70;;;9.30;87.70;;;;;;5027603;28;20122;-70
2023/02/15 07:36:30;;;;;;;71.72;40.33;;;8.90;87.10;;;;;;5028832;28;20052;-70
2023/02/15 07:39:34;;;;;;;87.80;49.03;;;8.50;86.20;;;;;;5029847;28;20048;-70
2023/02/15 07:42:38;;;;;;;89.47;47.10;;;9.00;86.60;;;;;;5017360;28;20044;-71
2023/02/15 07:45:43;;;;;;;77.80;45.15;;;9.50;86.50;;;;;;5028988;28;20048;-70
2023/02/15 07:48:47;;;;;;;81.38;49.00;;;10.00;85.60;;;;;;5029087;28;20044;-69
2023/02/15 07:51:51;;;;;;;85.88;49.67;;;10.20;85.20;;;;;;5029032;28;20114;-68
2023/02/15 07:54:55;;;;;;;79.13;46.10;;;10.40;85.10;;;;;;5028558;28;20053;-67
2023/02/15 07:57:59;;;;;;;94.38;52.85;;;10.50;84.30;;;;;;5028802;28;20052;-67
2023/02/15 08:01:04;;;;;;;77.10;46.20;;;10.80;83.10;;;;;;5027088;28;20048;-70
2023/02/15 08:04:10;;;;;;;85.88;49.95;;;11.00;82.00;;;;;;5028439;28;20048;-71
2023/02/15 08:07:15;;;;;;;72.18;46.33;;;9.80;81.00;;;;;;5027181;28;20389;-69
2023/02/15 08:11:25;;;;;;;84.28;49.15;;;11.30;81.50;;;;;;5027871;28;20227;-68
2023/02/15 08:13:54;;;;;;;83.32;46.47;;;11.90;81.40;;;;;;5027047;28;20142;-68
2023/02/15 08:17:02;;;;;;;85.32;50.55;;;12.30;80.20;;;;;;5027877;28;20056;-70
2023/02/15 08:20:08;;;;;;;84.63;49.92;;;12.40;79.50;;;;;;5027877;28;20044;-70
2023/02/15 08:23:13;;;;;;;71.75;45.40;;;12.80;79.40;;;;;;5026957;28;20065;-69
2023/02/15 08:26:17;;;;;;;81.13;47.45;;;12.80;78.80;;;;;;5028368;28;20045;-71
2023/02/15 08:29:35;;;;;;;76.47;47.50;;;12.90;78.00;;;;;;5028698;28;20045;-73
2023/02/15 08:32:39;;;;;;;77.43;47.60;;;13.40;77.40;;;;;;5028152;28;20044;-71
2023/02/15 08:35:43;;;;;;;75.13;45.22;;;13.20;76.20;;;;;;5027778;28;20048;-72
2023/02/15 08:38:49;;;;;;;68.75;44.88;;;13.30;76.80;;;;;;5027224;28;20079;-71
2023/02/15 08:41:53;;;;;;;63.50;39.95;;;13.30;76.80;;;;;;5027878;28;20036;-72
2023/02/15 08:44:57;;;;;;;54.53;36.63;;;;;;;;;;5027096;28;20048;-71
2023/02/15 08:48:01;;;;;;;48.08;32.28;;;10.80;74.50;;;;;;5031042;28;20053;-71
2023/02/15 08:51:10;;;;;;;52.90;32.28;;;13.60;76.30;;;;;;5031287;28;20045;-71
2023/02/15 08:54:17;;;;;;;50.50;32.80;;;11.60;74.00;;;;;;5019274;28;20049;-71
2023/02/15 08:57:21;;;;;;;46.47;30.70;;;;;;;;;;5031698;28;20072;-71
2023/02/15 09:00:25;;;;;;;44.97;29.65;;;14.10;75.60;;;;;;5031276;28;20043;-71
2023/02/15 09:03:30;;;;;;;38.22;26.40;;;;;;;;;;5031140;28;20055;-72
2023/02/15 09:06:34;;;;;;;45.03;26.75;;;14.10;74.60;;;;;;5031225;28;20044;-71
2023/02/15 09:09:39;;;;;;;37.35;25.38;;;;;;;;;;5031246;28;20541;-72
2023/02/15 09:12:43;;;;;;;37.33;25.58;;;;;;;;;;5030584;28;20048;-70
2023/02/15 09:15:49;;;;;;;38.05;24.60;;;14.40;74.80;;;;;;5032492;28;20044;-71
2023/02/15 09:18:53;;;;;;;32.28;23.02;;;14.40;75.10;;;;;;5030775;28;20381;-71
2023/02/15 09:21:58;;;;;;;33.55;22.55;;;14.30;75.30;;;;;;5030583;28;20060;-70
2023/02/15 09:25:04;;;;;;;33.45;22.55;;;14.70;75.10;;;;;;5030319;28;20076;-68
2023/02/15 09:28:08;;;;;;;31.92;20.60;;;14.10;74.30;;;;;;5030307;28;20060;-68
2023/02/15 09:31:18;;;;;;;33.15;19.33;;;15.00;73.40;;;;;;5018930;28;20401;-71
2023/02/15 09:34:23;;;;;;;27.08;18.30;;;15.20;72.50;;;;;;5030477;28;20052;-69
2023/02/15 09:37:27;;;;;;;28.17;18.10;;;14.50;71.70;;;;;;5033032;28;20504;-74
2023/02/15 09:40:40;;;;;;;26.67;16.77;;;13.20;70.10;;;;;;5030366;28;20044;-70
2023/02/15 09:44:13;;;;;;;34.15;22.83;;;15.60;71.30;;;;;;5020085;28;20056;-70
2023/02/15 09:47:26;;;;;;;31.98;21.45;;;15.60;71.80;;;;;;5028997;28;20040;-69
2023/02/15 09:50:55;;;;;;;29.48;21.17;;;15.90;71.90;;;;;;5030204;28;20044;-68
2023/02/15 09:54:11;;;;;;;33.25;20.88;;;16.00;71.30;;;;;;5029452;28;20044;-70
2023/02/15 09:57:18;;;;;;;30.80;21.52;;;16.00;70.90;;;;;;5029239;28;20052;-70
2023/02/15 10:00:44;;;;;;;36.80;22.95;;;16.20;71.20;;;;;;5029672;28;20045;-68
2023/02/15 10:04:12;;;;;;;38.03;22.85;;;16.30;70.60;;;;;;5030940;28;20049;-69
2023/02/15 10:07:25;;;;;;;39.75;22.63;;;16.50;68.40;;;;;;5029537;28;20048;-69
2023/02/15 10:10:44;;;;;;;37.15;23.05;;;16.60;69.00;;;;;;5030247;28;20044;-69
2023/02/15 10:14:05;;;;;;;37.95;22.45;;;16.70;69.60;;;;;;5031513;28;20057;-72
2023/02/15 10:17:56;;;;;;;33.97;22.65;;;17.20;68.20;;;;;;5029951;28;20159;-69
2023/02/15 10:21:21;;;;;;;36.83;22.90;;;17.00;68.30;;;;;;5029448;28;20044;-70
2023/02/15 10:24:40;;;;;;;32.10;20.80;;;17.20;68.00;;;;;;5029931;28;20044;-70
2023/02/15 10:27:49;;;;;;;30.33;20.77;;;17.40;68.00;;;;;;5029762;28;20044;-69
2023/02/15 10:31:24;;;;;;;33.08;20.85;;;17.50;67.80;;;;;;5029508;28;20052;-72
2023/02/15 10:34:39;;;;;;;40.97;24.58;;;17.70;67.40;;;;;;5028946;28;20052;-71
2023/02/15 10:37:46;;;;;;;53.88;21.65;;;17.80;65.90;;;;;;5028117;28;20060;-69
2023/02/15 10:41:02;;;;;;;29.48;20.08;;;17.90;66.00;;;;;;5017975;28;20397;-69
2023/02/15 10:44:39;;;;;;;35.10;21.63;;;17.90;64.60;;;;;;5030755;28;20632;-72
2023/02/15 10:48:12;;;;;;;32.45;20.95;;;18.00;64.90;;;;;;5030211;28;20048;-70
2023/02/15 10:51:22;;;;;;;32.45;21.27;;;18.00;64.30;;;;;;5028619;28;20036;-69
2023/02/15 10:54:29;;;;;;;38.03;20.80;;;18.00;64.80;;;;;;5030483;28;20053;-70
2023/02/15 10:57:56;;;;;;;35.03;20.30;;;18.00;65.40;;;;;;5017543;28;20547;-69
2023/02/15 11:01:20;;;;;;;32.13;19.77;;;18.10;66.50;;;;;;5029515;28;20060;-67
2023/02/15 11:04:44;;;;;;;29.40;19.98;;;18.20;65.00;;;;;;5029515;28;20104;-69
2023/02/15 11:07:53;;;;;;;30.13;17.40;;;18.20;64.20;;;;;;5029206;28;20044;-69
2023/02/15 11:11:09;;;;;;;25.50;16.55;;;18.20;65.00;;;;;;5029048;28;20499;-72
2023/02/15 11:14:51;;;;;;;28.42;19.05;;;18.10;65.50;;;;;;5029259;28;20050;-70
2023/02/15 11:18:31;;;;;;;36.17;19.42;;;18.20;65.60;;;;;;5029446;28;20049;-69
2023/02/15 11:21:45;;;;;;;30.90;19.63;;;18.10;65.50;;;;;;5029395;28;20495;-69
2023/02/15 11:24:54;;;;;;;28.85;19.83;;;18.00;65.30;;;;;;5028855;28;20511;-68
2023/02/15 11:28:00;;;;;;;35.80;20.85;;;18.00;66.10;;;;;;5029901;28;20052;-71
2023/02/15 11:31:19;;;;;;;37.95;24.67;;;18.00;66.50;;;;;;5028945;28;20392;-70
2023/02/15 11:34:36;;;;;;;44.88;27.15;;;17.90;65.60;;;;;;5033085;28;20044;-69
2023/02/15 11:37:53;;;;;;;44.67;26.70;;;17.80;66.10;;;;;;5028825;28;20056;-71
2023/02/15 11:41:08;;;;;;;34.65;23.77;;;17.80;66.80;;;;;;5027653;28;20381;-69
2023/02/15 11:44:46;;;;;;;39.65;25.60;;;17.80;67.10;;;;;;5028881;28;20052;-68
2023/02/15 11:47:52;;;;;;;38.40;25.40;;;17.70;67.50;;;;;;5034218;28;20033;-73
2023/02/15 11:50:56;;;;;;;38.75;25.75;;;17.60;67.90;;;;;;5029158;28;20048;-71
2023/02/15 11:54:02;;;;;;;36.92;24.67;;;17.60;68.10;;;;;;5028817;28;20528;-69
2023/02/15 11:57:38;;;;;;;42.03;27.08;;;17.50;68.10;;;;;;5028519;28;20045;-68
2023/02/15 12:00:46;;;;;;;42.75;27.23;;;17.50;67.70;;;;;;5016565;28;20053;-73
2023/02/15 12:04:12;;;;;;;47.97;29.45;;;17.40;67.30;;;;;;5027611;28;20432;-72
2023/02/15 12:07:25;;;;;;;41.03;26.95;;;17.30;67.50;;;;;;5028078;28;20041;-70
2023/02/15 12:10:39;;;;;;;38.78;24.75;;;17.30;67.60;;;;;;5028684;28;20044;-71
2023/02/15 12:13:55;;;;;;;38.83;23.95;;;17.30;68.20;;;;;;5028893;28;20064;-72
2023/02/15 12:17:02;;;;;;;43.83;27.08;;;17.20;68.40;;;;;;5028575;28;20045;-71
2023/02/15 12:20:15;;;;;;;46.17;27.42;;;17.30;68.40;;;;;;5028099;28;20080;-72
2023/02/15 12:23:21;;;;;;;47.03;26.52;;;17.30;67.90;;;;;;5032925;28;20048;-72
2023/02/15 12:26:34;;;;;;;34.72;23.70;;;17.20;67.30;;;;;;5033689;28;20053;-73
2023/02/15 12:29:47;;;;;;;44.05;26.85;;;17.20;67.00;;;;;;5032622;28;20049;-72
2023/02/15 12:33:31;;;;;;;41.33;24.38;;;17.20;66.80;;;;;;5031465;28;20385;-73
2023/02/15 12:36:50;;;;;;;40.17;24.30;;;17.20;67.20;;;;;;5033513;28;20033;-71
2023/02/15 12:40:01;;;;;;;40.13;26.63;;;17.10;67.70;;;;;;5032271;28;20048;-71
2023/02/15 12:43:25;;;;;;;37.20;24.23;;;17.10;67.20;;;;;;5033339;28;20049;-72
2023/02/15 12:46:30;;;;;;;43.53;26.08;;;17.20;67.70;;;;;;5033270;28;20049;-72
2023/02/15 12:49:36;;;;;;;38.38;24.27;;;17.10;67.70;;;;;;5033730;28;20045;-69
2023/02/15 12:52:41;;;;;;;39.35;25.00;;;17.10;67.70;;;;;;5031364;28;20040;-70
2023/02/15 12:55:57;;;;;;;48.03;28.33;;;17.10;68.10;;;;;;5031645;28;20050;-70
2023/02/15 12:59:05;;;;;;;48.67;28.20;;;17.10;68.70;;;;;;5030877;28;20080;-70
2023/02/15 13:02:21;;;;;;;48.22;28.23;;;17.10;68.80;;;;;;5032001;28;20089;-68
2023/02/15 13:05:39;;;;;;;38.60;25.65;;;17.10;69.20;;;;;;5031084;28;20155;-68
2023/02/15 13:08:50;;;;;;;44.35;27.80;;;17.10;69.50;;;;;;5030006;28;20068;-68
2023/02/15 13:11:54;;;;;;;;;;;17.00;70.20;;;;;;5031174;28;20056;-69
2023/02/15 13:15:01;;;;;;;48.15;29.05;;;17.00;70.70;;;;;;5030787;28;19909;-68
2023/02/15 13:18:15;;;;;;;42.60;27.30;;;17.00;70.90;;;;;;5031637;28;20061;-70
2023/02/15 13:21:24;;;;;;;37.20;25.50;;;17.00;71.30;;;;;;5030195;28;20045;-72
2023/02/15 13:24:40;;;;;;;36.83;25.02;;;17.00;71.40;;;;;;5031094;28;20072;-70
2023/02/15 13:27:48;;;;;;;34.88;25.50;;;17.00;71.50;;;;;;5030832;28;20045;-70
2023/02/15 13:30:52;;;;;;;41.03;27.85;;;17.00;71.50;;;;;;5031253;28;20428;-73
2023/02/15 13:34:10;;;;;;;41.75;27.17;;;17.00;71.60;;;;;;5030611;28;20155;-72
2023/02/15 13:37:20;;;;;;;42.53;24.83;;;17.00;72.10;;;;;;5031550;28;20040;-72
2023/02/15 13:40:27;;;;;;;35.22;23.48;;;16.90;72.30;;;;;;5030805;28;20602;-72
2023/02/15 13:43:59;;;;;;;31.25;21.88;;;16.90;72.20;;;;;;5030524;28;20504;-71
2023/02/15 13:47:20;;;;;;;37.42;25.63;;;16.90;72.20;;;;;;5030454;28;20499;-72
2023/02/15 13:50:36;;;;;;;35.85;22.90;;;16.90;71.80;;;;;;5029327;28;20064;-72
2023/02/15 13:53:41;;;;;;;35.75;23.25;;;16.90;72.00;;;;;;5030464;28;20649;-72
2023/02/15 13:57:03;;;;;;;34.80;24.75;;;16.80;72.20;;;;;;5030710;28;20401;-72
2023/02/15 14:00:31;;;;;;;29.10;19.70;;;16.80;71.90;;;;;;5029855;28;20065;-71
2023/02/15 14:04:13;;;;;;;30.90;21.70;;;16.80;71.90;;;;;;5030523;28;20408;-72
2023/02/15 14:07:39;;;;;;;45.83;25.13;;;16.70;72.30;;;;;;5030660;28;20044;-71
2023/02/15 14:10:58;;;;;;;29.70;20.83;;;16.70;72.80;;;;;;5029814;28;20064;-71
2023/02/15 14:14:39;;;;;;;30.20;20.20;;;16.70;72.70;;;;;;5030833;28;20057;-74
2023/02/15 14:18:17;;;;;;;32.78;20.02;;;16.60;72.90;;;;;;5030608;28;20048;-71
2023/02/15 14:21:32;;;;;;;27.90;19.60;;;16.60;73.00;;;;;;5029841;28;20056;-69
2023/02/15 14:24:58;;;;;;;35.60;21.58;;;16.60;73.00;;;;;;5030493;28;20045;-72
2023/02/15 14:28:08;;;;;;;25.25;16.10;;;16.50;72.30;;;;;;5029863;28;20049;-69
2023/02/15 14:31:20;;;;;;;24.13;17.05;;;16.50;72.40;;;;;;5029997;28;20040;-69
2023/02/15 14:34:58;;;;;;;22.58;15.07;;;16.50;72.50;;;;;;5030019;28;20653;-70
2023/02/15 14:38:21;;;;;;;26.30;16.52;;;16.50;72.30;;;;;;5030070;28;20052;-74
2023/02/15 14:41:42;;;;;;;22.42;14.93;;;16.40;71.90;;;;;;5029434;28;20048;-71
2023/02/15 14:45:01;;;;;;;30.60;19.30;;;16.50;72.70;;;;;;5029604;28;20040;-72
2023/02/15 14:48:16;;;;;;;32.97;20.02;;;16.50;74.00;;;;;;5030069;28;20044;-71
2023/02/15 14:51:49;;;;;;;31.67;18.70;;;16.40;74.20;;;;;;5019039;28;20048;-74
2023/02/15 14:54:54;;;;;;;42.17;20.73;;;16.40;74.70;;;;;;5029175;28;20044;-71
2023/02/15 14:58:02;;;;;;;26.60;18.17;;;16.30;75.10;;;;;;5026693;28;20164;-72
2023/02/15 15:01:09;;;;;;;25.60;16.42;;;16.30;75.30;;;;;;5029203;28;20045;-72
2023/02/15 15:04:33;;;;;;;28.17;17.55;;;16.30;75.50;;;;;;5029374;28;20052;-72
2023/02/15 15:07:53;;;;;;;25.90;16.75;;;16.30;75.70;;;;;;5029106;28;20408;-73
2023/02/15 15:11:43;;;;;;;35.05;22.35;;;16.30;76.10;;;;;;5029172;28;20052;-72
2023/02/15 15:14:49;;;;;;;26.80;17.60;;;16.20;76.80;;;;;;5069454;28;20075;-72
2023/02/15 15:18:02;;;;;;;30.38;16.95;;;16.20;77.10;;;;;;5068773;28;20047;-71
2023/02/15 15:21:07;;;;;;;22.25;15.30;;;16.20;77.40;;;;;;5028993;28;20504;-74
2023/02/15 15:24:38;;;;;;;26.08;15.85;;;16.20;77.70;;;;;;5029357;28;20392;-72
2023/02/15 15:27:45;;;;;;;23.95;15.77;;;16.10;78.00;;;;;;5028934;28;20041;-73
2023/02/15 15:30:50;;;;;;;22.30;15.80;;;16.10;78.50;;;;;;5029101;28;20507;-72
2023/02/15 15:34:06;;;;;;;28.42;17.27;;;16.00;79.00;;;;;;5028314;28;20044;-73
2023/02/15 15:37:41;;;;;;;26.38;16.98;;;16.10;79.80;;;;;;5028555;28;20043;-73
2023/02/15 15:40:48;;;;;;;32.75;18.58;;;16.00;80.70;;;;;;5027754;28;20056;-72
2023/02/15 15:44:21;;;;;;;27.90;19.05;;;16.00;81.50;;;;;;5028371;28;20048;-72
2023/02/15 15:47:34;;;;;;;34.58;20.48;;;15.90;81.90;;;;;;5027568;28;20499;-71
2023/02/15 15:50:42;;;;;;;38.22;18.52;;;15.90;82.40;;;;;;5027601;28;20365;-70
2023/02/15 15:53:52;;;;;;;26.98;17.60;;;15.90;82.80;;;;;;5028779;28;20044;-73
2023/02/15 15:57:03;;;;;;;24.27;15.40;;;15.80;83.10;;;;;;5030642;28;20041;-69
2023/02/15 16:00:50;;;;;;;30.92;15.82;;;15.80;83.50;;;;;;5032629;28;20048;-69
2023/02/15 16:03:57;;;;;;;27.13;15.10;;;15.70;83.60;;;;;;5033360;28;20044;-68
2023/02/15 16:07:16;;;;;;;31.75;16.77;;;15.70;84.20;;;;;;5031952;28;20401;-69
2023/02/15 16:10:28;;;;;;;28.20;15.43;;;15.60;84.90;;;;;;5033428;28;20060;-71
2023/02/15 16:13:34;;;;;;;21.63;14.55;;;15.50;85.30;;;;;;5034140;28;20519;-70
2023/02/15 16:16:38;;;;;;;33.00;18.08;;;15.50;85.90;;;;;;5034133;28;20045;-70
2023/02/15 16:19:46;;;;;;;45.53;19.27;;;15.50;86.30;;;;;;5030099;28;20511;-71
2023/02/15 16:23:10;;;;;;;33.50;18.48;;;15.40;86.40;;;;;;5031306;28;20053;-72
2023/02/15 16:26:17;;;;;;;32.10;14.95;;;15.30;86.70;;;;;;5030642;28;20044;-69
2023/02/15 16:29:40;;;;;;;28.63;17.15;;;15.30;87.00;;;;;;5030582;28;20064;-68
2023/02/15 16:32:45;;;;;;;32.38;19.08;;;15.20;87.00;;;;;;5030773;28;20060;-69
2023/02/15 16:35:56;;;;;;;31.88;17.48;;;15.10;87.30;;;;;;5031276;28;20044;-70
2023/02/15 16:39:09;;;;;;;34.65;21.38;;;15.00;87.80;;;;;;5031192;28;20056;-67
2023/02/15 16:42:15;;;;;;;37.72;21.67;;;14.90;87.20;;;;;;5029933;28;20048;-68
2023/02/15 16:45:23;;;;;;;38.80;21.38;;;14.90;88.10;;;;;;5030776;28;20504;-68
2023/02/15 16:48:27;;;;;;;30.95;20.15;;;14.80;88.90;;;;;;5030488;28;20044;-68
2023/02/15 16:51:34;;;;;;;44.25;21.48;;;14.70;88.90;;;;;;5030707;28;20452;-68
2023/02/15 16:54:42;;;;;;;35.45;21.33;;;14.60;89.20;;;;;;5030979;28;20491;-68
2023/02/15 16:57:46;;;;;;;41.45;22.77;;;14.50;90.00;;;;;;5030644;28;20610;-70
2023/02/15 17:00:50;;;;;;;48.15;24.13;;;14.50;90.20;;;;;;5030449;28;20048;-70
2023/02/15 17:04:22;;;;;;;45.28;25.95;;;14.50;90.40;;;;;;5030548;28;20041;-69
2023/02/15 17:07:26;;;;;;;38.03;22.08;;;14.50;90.60;;;;;;5029798;28;20040;-69
2023/02/15 17:10:30;;;;;;;42.72;22.88;;;;;;;;;;5029654;28;20045;-69
2023/02/15 17:13:36;;;;;;;47.58;24.08;;;13.20;90.70;;;;;;5030203;28;20130;-68
2023/02/15 17:17:00;;;;;;;45.22;26.27;;;14.20;91.20;;;;;;5030861;28;20053;-72
2023/02/15 17:20:15;;;;;;;48.75;26.40;;;14.30;91.20;;;;;;5031113;28;20056;-76
2023/02/15 17:23:47;;;;;;;43.63;26.23;;;11.40;90.80;;;;;;5030911;28;20040;-71